MSC Levina — 3FJR8 — position and weather

sailwx.info

Track history (hours):
 
Tides and Currents Weather Stations Pressure Air Temp Water Temp Dewpoint Dewpoint Depression Visibility Wind Speed Wind Dir Waves Ship Positions

MSC Levina

Last reported at 2015-Jan-31 17:31 UTC. Time now 2015-Jan-31 17:42 UTC.
Position S 29°53' E 031°01'.

Length 227.6 m; beam 32.2 m; draft 12.1 m.

Type: Ship (hazmat cat A). MMSI: 355609000.

Date/timePositionNaut miles runAvg speedWind from/ knotsBaromVisibWave heightAir tempDewpointWater temp
2015-Jan-31 17:31S 29°53' E 031°01'0 0.0
2015-Jan-31 16:31S 29°53' E 031°01'0 0.0
2015-Jan-31 15:25S 29°53' E 031°01'0 0.0
2015-Jan-31 13:31S 29°53' E 031°01'0 0.0
2015-Jan-31 12:25S 29°53' E 031°01'0 0.0
2015-Jan-31 11:25S 29°53' E 031°01'0 0.0
2015-Jan-31 10:25S 29°53' E 031°01'0 0.0
2015-Jan-31 09:31S 29°53' E 031°01'0 0.0
2015-Jan-31 08:31S 29°53' E 031°01'0 0.0
2015-Jan-31 07:31S 29°53' E 031°01'0 0.0
2015-Jan-31 06:31S 29°53' E 031°01'0 0.0
2015-Jan-31 05:31S 29°53' E 031°01'0 0.0
2015-Jan-31 04:31S 29°53' E 031°01'0 0.0
2015-Jan-31 03:31S 29°53' E 031°01'0 0.0
2015-Jan-31 02:31S 29°53' E 031°01'0 0.0
2015-Jan-31 01:25S 29°53' E 031°01'0 0.0
2015-Jan-31 00:31S 29°53' E 031°01'0 0.5
2015-Jan-30 23:33S 29°53' E 031°02'5 5.1
2015-Jan-30 22:33S 29°51' E 031°07'2 1.8
2015-Jan-30 21:32S 29°50' E 031°09'1 1.1
2015-Jan-30 20:33S 29°50' E 031°10'3 2.6
2015-Jan-30 19:33S 29°51' E 031°13'5 5.3
2015-Jan-30 18:33S 29°53' E 031°19'3 3.3
2015-Jan-30 17:33S 29°52' E 031°22'2 1.7
2015-Jan-30 16:33S 29°52' E 031°20'1 1.2
2015-Jan-30 15:34S 29°52' E 031°22'1 1.4
2015-Jan-30 14:33S 29°53' E 031°23'1 1.0
2015-Jan-30 13:33S 29°54' E 031°24'0 0.5
2015-Jan-30 12:33S 29°54' E 031°24'0 0.2
2015-Jan-30 11:33S 29°54' E 031°25'0 0.5
2015-Jan-30 10:33S 29°54' E 031°25'1 0.8
2015-Jan-30 09:33S 29°54' E 031°26'1 1.3
2015-Jan-30 08:33S 29°53' E 031°27'2 1.8
2015-Jan-30 07:33S 29°51' E 031°28'1 1.4
2015-Jan-30 06:33S 29°50' E 031°28'7 6.9
2015-Jan-30 05:33S 29°52' E 031°21'9 8.6
2015-Jan-30 04:33S 29°56' E 031°12'8 8.1
2015-Jan-30 03:33S 30°01' E 031°04'9 9.0
2015-Jan-30 02:33S 30°08' E 030°59'8 8.2
2015-Jan-30 01:33S 30°16' E 030°54'8 8.0
2015-Jan-30 00:33S 30°23' E 030°50'33512.6
2015-Jan-28 22:05S 33°55' E 025°44'  
Track history (hours):
 
Tides and Currents Weather Stations Pressure Air Temp Water Temp Dewpoint Dewpoint Depression Visibility Wind Speed Wind Dir Waves Ship Positions

MSC Levina

Last reported at 2015-Jan-31 17:31 UTC. Time now 2015-Jan-31 17:42 UTC.
Position S 29°53' E 031°01'.

Length 227.6 m; beam 32.2 m; draft 12.1 m.

Type: Ship (hazmat cat A). MMSI: 355609000.

Date/timePositionNaut miles runAvg speedWind from/ knotsBaromVisibWave heightAir tempDewpointWater temp
2015-Jan-31 17:31S 29°53' E 031°01'0 0.0
2015-Jan-31 16:31S 29°53' E 031°01'0 0.0
2015-Jan-31 15:25S 29°53' E 031°01'0 0.0
2015-Jan-31 13:31S 29°53' E 031°01'0 0.0
2015-Jan-31 12:25S 29°53' E 031°01'0 0.0
2015-Jan-31 11:25S 29°53' E 031°01'0 0.0
2015-Jan-31 10:25S 29°53' E 031°01'0 0.0
2015-Jan-31 09:31S 29°53' E 031°01'0 0.0
2015-Jan-31 08:31S 29°53' E 031°01'0 0.0
2015-Jan-31 07:31S 29°53' E 031°01'0 0.0
2015-Jan-31 06:31S 29°53' E 031°01'0 0.0
2015-Jan-31 05:31S 29°53' E 031°01'0 0.0
2015-Jan-31 04:31S 29°53' E 031°01'0 0.0
2015-Jan-31 03:31S 29°53' E 031°01'0 0.0
2015-Jan-31 02:31S 29°53' E 031°01'0 0.0
2015-Jan-31 01:25S 29°53' E 031°01'0 0.0
2015-Jan-31 00:31S 29°53' E 031°01'0 0.5
2015-Jan-30 23:33S 29°53' E 031°02'5 5.1
2015-Jan-30 22:33S 29°51' E 031°07'2 1.8
2015-Jan-30 21:32S 29°50' E 031°09'1 1.1
2015-Jan-30 20:33S 29°50' E 031°10'3 2.6
2015-Jan-30 19:33S 29°51' E 031°13'5 5.3
2015-Jan-30 18:33S 29°53' E 031°19'3 3.3
2015-Jan-30 17:33S 29°52' E 031°22'2 1.7
2015-Jan-30 16:33S 29°52' E 031°20'1 1.2
2015-Jan-30 15:34S 29°52' E 031°22'1 1.4
2015-Jan-30 14:33S 29°53' E 031°23'1 1.0
2015-Jan-30 13:33S 29°54' E 031°24'0 0.5
2015-Jan-30 12:33S 29°54' E 031°24'0 0.2
2015-Jan-30 11:33S 29°54' E 031°25'0 0.5
2015-Jan-30 10:33S 29°54' E 031°25'1 0.8
2015-Jan-30 09:33S 29°54' E 031°26'1 1.3
2015-Jan-30 08:33S 29°53' E 031°27'2 1.8
2015-Jan-30 07:33S 29°51' E 031°28'1 1.4
2015-Jan-30 06:33S 29°50' E 031°28'7 6.9
2015-Jan-30 05:33S 29°52' E 031°21'9 8.6
2015-Jan-30 04:33S 29°56' E 031°12'8 8.1
2015-Jan-30 03:33S 30°01' E 031°04'9 9.0
2015-Jan-30 02:33S 30°08' E 030°59'8 8.2
2015-Jan-30 01:33S 30°16' E 030°54'8 8.0
2015-Jan-30 00:33S 30°23' E 030°50'33512.6
2015-Jan-28 22:05S 33°55' E 025°44'  

Dump ship's entire track history